Original METAR for KDHN:
272153Z 09007KT 10SM CLR 15/02 A3021 RMK AO2 SLP229 T01500022 $

Wind: 90° at 7 knots
Visibility: 10 statute miles
Sky conditions: Clear
Temperature: 59°F
Dew Point: 35.6°F
Altimeter: 30.21

Remarks:
-- METAR generated by an automated station with a precipitation discriminator.
-- Sea level pressure: 1,022.9 millibars.
-- Precise hourly temperature and dew point: 15.0°C / 2.2°C

NOTE:
This METAR was retrieved from metars.com at:
http://www.metars.com/stations/KDHN.html


Cessnas2Oshkosh, C2O, CessnaBaseCamp and The Pirep | Testimonials | Donations | FAQ | Privacy | Contact Us
are trademarks of Cessnas 2 Oshkosh, Inc. - Dothan, AL Copyright © 2008 - 2022 Cessnas 2 Oshkosh, Inc. All rights reserved.